Time;durP1;ratioP1;P1;durP2;ratioP2;P2;SDS_P1;SDS_P2;PMS_P1;PMS_P2;Temp;Humidity;BMP_temperature;BMP_pressure;BME280_temperature;BME280_humidity;BME280_pressure;Samples;Min_cycle;Max_cycle;Signal;HPM_P1;HPM_P2
2023/06/29 00:00:19;;;;;;;6.30;3.57;;;20.80;92.10;;;20.61;64.52;101076.16;5055592;28;20197;-77
2023/06/29 00:02:53;;;;;;;3.87;3.00;;;20.80;92.60;;;20.59;64.33;101075.53;5055489;28;20228;-76
2023/06/29 00:05:25;;;;;;;4.23;2.80;;;20.80;92.60;;;20.61;64.00;101073.44;5055308;28;20234;-77
2023/06/29 00:07:58;;;;;;;4.47;2.60;;;20.80;92.80;;;20.60;64.31;101071.75;5055453;28;20194;-76
2023/06/29 00:10:30;;;;;;;8.33;2.87;;;20.70;92.60;;;20.56;64.62;101075.97;5055404;28;20641;-76
2023/06/29 00:13:02;;;;;;;5.23;3.00;;;20.70;92.90;;;20.53;64.41;101075.56;5055383;28;20236;-77
2023/06/29 00:15:35;;;;;;;6.40;2.90;;;20.70;92.70;;;20.50;64.39;101074.13;5055267;28;20186;-77
2023/06/29 00:18:08;;;;;;;6.40;3.10;;;20.60;92.90;;;20.47;65.49;101071.84;5055259;28;20226;-77
2023/06/29 00:20:40;;;;;;;4.97;3.03;;;20.70;93.20;;;20.50;65.06;101071.41;5055211;28;20198;-77
2023/06/29 00:23:12;;;;;;;6.17;2.90;;;20.60;93.20;;;20.48;65.59;101068.03;5054850;28;20190;-76
2023/06/29 00:25:47;;;;;;;4.83;2.77;;;20.70;93.30;;;20.44;65.77;101066.81;5055245;28;20317;-76
2023/06/29 00:28:18;;;;;;;4.50;2.50;;;20.60;93.40;;;20.42;65.70;101073.50;5055295;28;20213;-76
2023/06/29 00:30:51;;;;;;;4.17;3.00;;;20.60;93.50;;;20.40;66.06;101071.03;5054097;28;20641;-76
2023/06/29 00:33:23;;;;;;;3.80;2.73;;;20.60;93.80;;;20.40;65.77;101072.91;5054476;28;20563;-76
2023/06/29 00:35:55;;;;;;;3.40;2.80;;;20.60;93.90;;;20.38;66.04;101075.84;5054921;28;20241;-76
2023/06/29 00:38:27;;;;;;;4.23;2.90;;;20.50;93.70;;;20.37;65.59;101076.06;5054824;28;20595;-76
2023/06/29 00:41:00;;;;;;;4.20;2.90;;;20.60;93.70;;;20.37;65.80;101071.47;5054790;28;20186;-76
2023/06/29 00:43:34;;;;;;;4.63;2.90;;;20.70;93.90;;;20.36;65.76;101072.50;5054574;28;20344;-76
2023/06/29 00:46:07;;;;;;;4.70;2.77;;;20.60;93.80;;;20.31;65.92;101066.88;5054353;28;20536;-76
2023/06/29 00:48:40;;;;;;;4.67;2.90;;;20.50;94.00;;;20.31;65.61;101056.00;5054328;28;20186;-76
2023/06/29 00:51:12;;;;;;;3.93;2.60;;;20.50;94.10;;;20.34;65.67;101065.63;5054650;28;20297;-76
2023/06/29 00:53:45;;;;;;;5.53;2.83;;;20.50;94.50;;;20.34;66.15;101058.31;5054478;28;20309;-76
2023/06/29 00:56:16;;;;;;;4.37;3.10;;;20.50;94.30;;;20.30;66.46;101054.34;5054432;28;20660;-76
2023/06/29 00:58:48;;;;;;;4.93;2.80;;;20.50;94.40;;;20.25;66.32;101049.50;5054110;28;20564;-76
2023/06/29 01:01:21;;;;;;;3.77;3.20;;;20.30;94.30;;;20.19;66.76;101053.09;5054378;28;20186;-76
2023/06/29 01:03:57;;;;;;;5.23;3.47;;;20.40;94.50;;;20.15;66.80;101051.00;5053899;28;20566;-76
2023/06/29 01:06:40;;;;;;;4.57;3.10;;;20.30;94.60;;;20.16;66.55;101053.53;5054280;28;20198;-76
2023/06/29 01:09:15;;;;;;;4.93;3.10;;;20.40;94.70;;;20.16;66.89;101047.25;5054222;28;20193;-76
2023/06/29 01:11:48;;;;;;;3.33;2.90;;;20.40;94.70;;;20.18;66.97;101042.44;5053869;28;20190;-76
2023/06/29 01:14:23;;;;;;;4.07;2.77;;;20.40;94.90;;;20.19;67.16;101035.94;5053740;28;20218;-76
2023/06/29 01:16:59;;;;;;;4.47;2.90;;;20.40;95.10;;;20.17;67.39;101043.50;5053745;28;20642;-76
2023/06/29 01:19:33;;;;;;;4.20;3.30;;;20.40;95.20;;;20.13;68.12;101036.81;5053970;28;20193;-76
2023/06/29 01:22:13;;;;;;;3.83;3.40;;;20.30;95.20;;;20.10;67.79;101032.63;5053961;28;20209;-76
2023/06/29 01:24:48;;;;;;;4.87;3.23;;;20.30;95.40;;;20.07;67.80;101027.63;5053671;28;20233;-76
2023/06/29 01:27:21;;;;;;;3.50;3.20;;;20.30;95.30;;;20.02;68.15;101023.91;5053596;28;20574;-77
2023/06/29 01:29:55;;;;;;;5.73;3.80;;;20.30;95.50;;;19.99;68.30;101021.59;5053854;28;20195;-77
2023/06/29 01:32:31;;;;;;;5.40;3.30;;;20.20;95.50;;;20.00;67.97;101023.28;5053770;28;20194;-77
2023/06/29 01:35:04;;;;;;;4.97;3.53;;;20.20;95.60;;;20.00;68.49;101015.13;5053364;28;20236;-77
2023/06/29 01:37:43;;;;;;;4.27;3.33;;;20.20;95.70;;;19.99;68.22;101018.88;5053975;28;20212;-77
2023/06/29 01:40:21;;;;;;;5.67;3.07;;;20.30;95.70;;;20.00;68.41;101021.38;5053656;28;20241;-77
2023/06/29 01:42:56;;;;;;;3.73;3.27;;;20.20;96.10;;;20.01;68.55;101022.22;5053058;28;20281;-77
2023/06/29 01:45:29;;;;;;;5.27;3.63;;;20.30;95.80;;;20.00;68.79;101020.56;5053450;28;20674;-77
2023/06/29 01:48:01;;;;;;;3.80;3.43;;;20.30;96.00;;;19.97;68.72;101020.97;5053567;28;20190;-77
2023/06/29 01:50:33;;;;;;;4.03;3.47;;;20.20;96.10;;;19.96;68.88;101016.59;5053185;28;20706;-77
2023/06/29 01:53:05;;;;;;;4.50;3.80;;;20.20;96.10;;;19.89;68.88;101008.47;5053072;28;20666;-77
2023/06/29 01:55:38;;;;;;;4.57;3.53;;;20.20;96.30;;;19.89;68.84;101003.03;5053049;28;20205;-77
2023/06/29 01:58:10;;;;;;;4.50;4.10;;;20.10;96.20;;;19.88;68.87;101004.09;5053356;28;20277;-77
2023/06/29 02:00:42;;;;;;;5.27;3.67;;;20.10;96.60;;;19.88;68.74;101003.25;5053438;28;20194;-77
2023/06/29 02:03:14;;;;;;;4.30;3.83;;;20.10;96.30;;;19.87;69.20;101007.00;5053285;28;20269;-77
2023/06/29 02:05:46;;;;;;;4.50;3.70;;;20.10;96.20;;;19.83;69.15;101003.88;5053200;28;20214;-77
2023/06/29 02:08:19;;;;;;;5.27;3.70;;;20.10;96.40;;;19.83;68.97;101003.06;5053281;28;20187;-77
2023/06/29 02:10:52;;;;;;;5.70;4.10;;;20.10;96.40;;;19.82;69.31;101004.09;5053219;28;20195;-77
2023/06/29 02:13:23;;;;;;;4.30;3.90;;;20.10;96.30;;;19.84;69.29;101002.00;5052826;28;20195;-77
2023/06/29 02:15:55;;;;;;;5.67;4.17;;;20.10;96.80;;;19.84;69.58;101004.72;5053109;28;20277;-77
2023/06/29 02:18:27;;;;;;;4.30;4.00;;;20.10;97.00;;;19.83;69.37;101008.50;5053127;28;20190;-77
2023/06/29 02:20:59;;;;;;;5.10;4.03;;;20.00;96.50;;;19.83;69.05;101009.31;5054069;28;20202;-77
2023/06/29 02:23:31;;;;;;;4.97;4.23;;;20.10;96.70;;;19.83;69.32;101005.78;5052631;28;20276;-77
2023/06/29 02:26:04;;;;;;;5.20;4.70;;;20.10;96.70;;;19.84;69.31;101002.84;5052725;28;20680;-77
2023/06/29 02:28:36;;;;;;;6.70;4.63;;;20.10;96.80;;;19.82;69.43;101012.25;5053052;28;20273;-77
2023/06/29 02:31:08;;;;;;;4.97;4.47;;;20.00;96.80;;;19.81;69.25;101007.88;5052639;28;20289;-77
2023/06/29 02:33:42;;;;;;;5.67;5.07;;;20.00;97.00;;;19.77;69.87;101003.91;5052759;28;20237;-77
2023/06/29 02:36:15;;;;;;;5.57;5.17;;;20.00;97.20;;;19.76;69.93;101008.50;5053167;28;20222;-76
2023/06/29 02:38:47;;;;;;;6.17;5.63;;;20.00;97.10;;;19.72;69.82;101001.84;5052808;28;20233;-75
2023/06/29 02:41:20;;;;;;;7.50;6.13;;;19.90;97.00;;;19.63;69.82;101003.09;5052560;28;20719;-75
2023/06/29 02:43:52;;;;;;;6.70;5.83;;;19.90;97.00;;;19.51;69.81;101000.22;5052790;28;20594;-76
2023/06/29 02:46:24;;;;;;;7.30;6.30;;;19.90;97.40;;;19.51;70.11;100999.38;5052841;28;20244;-76
2023/06/29 02:48:56;;;;;;;8.70;6.30;;;19.70;97.40;;;19.51;70.16;100994.78;5053310;28;20187;-76
2023/06/29 02:51:28;;;;;;;6.70;5.97;;;19.80;97.50;;;19.53;70.11;100992.69;5052806;28;20290;-76
2023/06/29 02:54:00;;;;;;;8.77;7.00;;;19.80;97.30;;;19.55;69.76;100996.03;5052930;28;20228;-76
2023/06/29 02:56:33;;;;;;;7.33;6.60;;;19.80;97.00;;;19.58;69.96;100990.19;5056691;28;20280;-76
2023/06/29 02:59:05;;;;;;;8.17;6.60;;;19.80;97.40;;;19.56;69.98;100989.53;5056681;28;20320;-76
2023/06/29 03:01:36;;;;;;;7.30;6.60;;;19.80;97.40;;;19.59;70.14;100980.97;5056661;28;20186;-76
2023/06/29 03:04:08;;;;;;;7.83;7.03;;;19.80;97.20;;;19.57;70.12;100991.22;5056446;28;20229;-75
2023/06/29 03:06:40;;;;;;;8.03;7.23;;;19.80;97.30;;;19.54;69.83;100983.50;5056156;28;20297;-75
2023/06/29 03:09:12;;;;;;;7.10;6.50;;;19.80;97.00;;;19.59;69.87;100986.41;5056486;28;20217;-74
2023/06/29 03:11:45;;;;;;;7.40;6.70;;;20.00;97.20;;;19.55;69.28;100979.75;5056916;28;20208;-76
2023/06/29 03:14:18;;;;;;;8.10;7.47;;;19.80;96.90;;;19.56;69.90;100986.84;5056275;28;20261;-75
2023/06/29 03:16:50;;;;;;;10.93;6.87;;;19.80;97.10;;;19.55;70.19;100987.91;5055996;28;20578;-75
2023/06/29 03:19:22;;;;;;;7.97;7.07;;;19.80;97.20;;;19.57;69.83;100987.66;5056186;28;20644;-75
2023/06/29 03:21:54;;;;;;;8.20;7.50;;;19.80;97.50;;;19.53;69.95;100981.81;5056588;28;20195;-75
2023/06/29 03:24:26;;;;;;;8.03;7.23;;;19.80;97.40;;;19.51;69.97;100983.09;5056265;28;20265;-74
2023/06/29 03:26:59;;;;;;;8.60;7.70;;;19.80;97.20;;;19.48;70.14;100978.94;5056117;28;20229;-75
2023/06/29 03:29:32;;;;;;;8.60;7.57;;;19.80;97.70;;;19.49;70.08;100979.75;5056382;28;20190;-74
2023/06/29 03:32:03;;;;;;;9.43;7.60;;;19.80;97.50;;;19.50;69.82;100979.53;5055837;28;20586;-75
2023/06/29 03:34:36;;;;;;;12.03;7.47;;;19.80;97.30;;;19.49;70.40;100986.00;5055751;28;20325;-76
2023/06/29 03:37:09;;;;;;;12.27;8.53;;;19.80;97.50;;;19.38;70.51;100981.22;5055650;28;20218;-76
2023/06/29 03:39:40;;;;;;;12.90;7.90;;;19.70;97.50;;;19.40;71.02;100976.41;5055916;28;20186;-76
2023/06/29 03:42:14;;;;;;;9.63;8.13;;;19.70;97.70;;;19.43;70.83;100981.44;5055541;28;20712;-76
2023/06/29 03:44:46;;;;;;;9.50;8.60;;;19.70;97.60;;;19.37;71.10;100987.69;5055631;28;20308;-76
2023/06/29 03:47:18;;;;;;;8.50;7.80;;;19.60;97.60;;;19.40;70.94;100981.81;5055914;28;20249;-76
2023/06/29 03:49:50;;;;;;;10.20;9.20;;;19.60;98.10;;;19.30;70.41;100981.44;5055415;28;20293;-76
2023/06/29 03:52:22;;;;;;;11.17;10.07;;;19.60;97.30;;;19.27;70.40;100984.56;5055377;28;20285;-76
2023/06/29 03:54:54;;;;;;;10.23;8.80;;;19.50;97.20;;;19.29;70.29;100979.75;5055316;28;20784;-76
2023/06/29 03:57:27;;;;;;;9.03;8.23;;;19.60;97.40;;;19.32;70.56;100986.63;5055613;28;20281;-76
2023/06/29 03:59:59;;;;;;;9.70;8.80;;;19.60;97.50;;;19.34;70.35;100976.41;5055731;28;20210;-76
2023/06/29 04:02:31;;;;;;;9.47;8.47;;;19.60;97.40;;;19.35;70.80;100983.53;5055567;28;20604;-76
2023/06/29 04:05:03;;;;;;;9.97;9.13;;;19.60;97.60;;;19.27;70.10;100979.16;5055418;28;20226;-76
2023/06/29 04:07:35;;;;;;;11.10;9.27;;;19.60;97.10;;;19.12;70.55;100983.94;5055343;28;20245;-76
2023/06/29 04:10:08;;;;;;;9.97;9.27;;;19.50;97.40;;;19.18;70.29;100973.09;5055335;28;20543;-76
2023/06/29 04:12:41;;;;;;;9.00;8.20;;;19.60;97.40;;;19.20;70.49;100971.00;5055318;28;20278;-76
2023/06/29 04:15:14;;;;;;;11.23;8.73;;;19.50;97.50;;;19.25;70.48;100967.63;5055129;28;20300;-76
2023/06/29 04:17:46;;;;;;;11.33;8.40;;;19.50;97.30;;;19.28;70.22;100964.50;5055253;28;20218;-76
2023/06/29 04:20:19;;;;;;;8.57;7.70;;;19.60;97.40;;;19.29;70.26;100968.91;5055227;28;20202;-76
2023/06/29 04:22:51;;;;;;;11.53;8.23;;;19.60;97.20;;;19.30;70.37;100975.16;5055163;28;20186;-76
2023/06/29 04:25:23;;;;;;;9.70;8.53;;;19.60;97.30;;;19.29;70.73;100971.59;5054706;28;20226;-76
2023/06/29 04:27:56;;;;;;;13.40;8.20;;;19.60;97.40;;;19.31;70.29;100972.25;5054959;28;20190;-76
2023/06/29 04:30:28;;;;;;;9.03;8.13;;;19.60;97.40;;;19.30;70.83;100975.16;5055018;28;20281;-76
2023/06/29 04:33:09;;;;;;;9.33;8.53;;;19.60;97.90;;;19.31;70.64;100965.97;5054941;28;20240;-76
2023/06/29 04:35:44;;;;;;;11.00;8.43;;;19.60;97.60;;;19.30;70.76;100965.16;5054761;28;20220;-76
2023/06/29 04:38:17;;;;;;;8.80;8.00;;;19.60;97.50;;;19.31;70.51;100963.25;5055517;28;20212;-76
2023/06/29 04:40:49;;;;;;;9.30;8.40;;;19.60;97.40;;;19.31;70.44;100965.97;5054766;28;20198;-76
2023/06/29 04:43:22;;;;;;;9.27;8.27;;;19.60;97.30;;;19.33;71.03;100969.31;5054661;28;20281;-76
2023/06/29 04:45:54;;;;;;;8.80;7.93;;;19.60;97.50;;;19.33;70.74;100963.88;5054682;28;20190;-76
2023/06/29 04:48:36;;;;;;;8.90;8.10;;;19.60;97.30;;;19.33;70.60;100967.44;5054738;28;20213;-76
2023/06/29 04:51:09;;;;;;;10.27;9.10;;;19.60;97.30;;;19.32;70.88;100973.91;5054623;28;20190;-75
2023/06/29 04:53:41;;;;;;;9.80;8.90;;;19.60;97.40;;;19.33;71.06;100972.88;5054882;28;20225;-76
2023/06/29 04:56:13;;;;;;;8.97;8.03;;;19.60;97.70;;;19.32;71.49;100971.19;5055290;28;20191;-76
2023/06/29 04:58:46;;;;;;;8.70;7.77;;;19.60;97.60;;;19.35;71.26;100965.31;5054391;28;20218;-76
2023/06/29 05:01:18;;;;;;;9.30;8.40;;;19.60;97.70;;;19.34;71.29;100960.97;5054412;28;20273;-75
2023/06/29 05:03:49;;;;;;;11.70;10.03;;;19.60;97.70;;;19.29;71.47;100963.47;5054268;28;20229;-75
2023/06/29 05:06:22;;;;;;;11.53;10.17;;;19.60;97.80;;;19.11;71.94;100960.59;5053890;28;20211;-75
2023/06/29 05:08:53;;;;;;;9.77;8.77;;;19.40;97.90;;;19.19;71.86;100960.34;5054171;28;20282;-76
2023/06/29 05:11:25;;;;;;;11.27;8.93;;;19.50;97.90;;;19.24;72.12;100963.28;5053841;28;20715;-76
2023/06/29 05:13:59;;;;;;;9.37;8.47;;;19.60;98.60;;;19.27;72.50;100962.84;5054030;28;20264;-76
2023/06/29 05:16:30;;;;;;;10.17;8.53;;;19.60;98.30;;;19.28;72.54;100961.78;5054011;28;20220;-76
2023/06/29 05:19:02;;;;;;;11.83;8.10;;;19.60;98.30;;;19.32;72.38;100954.06;5053545;28;20256;-76
2023/06/29 05:21:34;;;;;;;8.80;8.00;;;19.60;98.20;;;19.33;72.35;100953.03;5053761;28;20226;-76
2023/06/29 05:24:07;;;;;;;10.73;8.70;;;19.60;98.20;;;19.35;72.47;100945.50;5053952;28;20272;-76
2023/06/29 05:26:39;;;;;;;9.87;8.13;;;19.70;98.60;;;19.36;72.51;100944.44;5053855;28;20293;-76
2023/06/29 05:29:12;;;;;;;11.43;8.73;;;19.70;98.50;;;19.33;72.52;100945.72;5053862;28;20316;-75
2023/06/29 05:31:44;;;;;;;9.23;7.93;;;19.70;98.30;;;19.36;72.32;100942.56;5053781;28;20191;-75
2023/06/29 05:34:16;;;;;;;10.53;8.37;;;19.70;98.40;;;19.39;72.62;100938.59;5053688;28;20244;-75
2023/06/29 05:36:48;;;;;;;9.20;8.20;;;19.70;98.50;;;19.41;72.69;100940.09;5053745;28;20193;-75
2023/06/29 05:39:20;;;;;;;9.60;8.20;;;19.70;98.40;;;19.44;72.31;100939.66;5053712;28;20195;-75
2023/06/29 05:41:52;;;;;;;10.17;8.80;;;19.80;98.50;;;19.45;72.34;100935.88;5053711;28;20285;-75
2023/06/29 05:44:25;;;;;;;9.17;8.30;;;19.80;98.30;;;19.45;72.03;100941.31;5053524;28;20226;-76
2023/06/29 05:46:57;;;;;;;14.27;9.67;;;19.80;98.30;;;19.47;72.03;100936.53;5053239;28;20550;-75
2023/06/29 05:49:29;;;;;;;11.77;9.07;;;19.80;98.10;;;19.49;72.16;100931.69;5053217;28;20285;-75
2023/06/29 05:52:01;;;;;;;12.23;8.83;;;20.00;98.20;;;19.50;72.03;100938.81;5053505;28;20198;-75
2023/06/29 05:54:33;;;;;;;9.93;8.93;;;19.80;98.10;;;19.51;72.03;100935.06;5053060;28;20637;-75
2023/06/29 05:57:05;;;;;;;13.37;9.37;;;19.90;98.20;;;19.49;71.23;100939.84;5053381;28;20617;-75
2023/06/29 05:59:38;;;;;;;11.37;9.40;;;19.80;97.80;;;19.51;71.40;100940.47;5053389;28;20225;-75
2023/06/29 06:02:12;;;;;;;11.90;9.47;;;19.90;98.00;;;19.55;71.34;100947.16;5053271;28;20282;-76
2023/06/29 06:04:44;;;;;;;12.07;9.33;;;19.90;98.10;;;19.57;71.77;100939.63;5053208;28;20296;-75
2023/06/29 06:07:26;;;;;;;12.27;9.47;;;19.90;98.10;;;19.59;71.75;100942.09;5053199;28;20317;-75
2023/06/29 06:09:59;;;;;;;12.37;10.23;;;19.90;98.10;;;19.53;71.04;100935.66;5053266;28;20195;-76
2023/06/29 06:12:31;;;;;;;13.43;11.27;;;19.90;97.80;;;19.52;70.41;100936.69;5053212;28;20198;-76
2023/06/29 06:15:05;;;;;;;11.40;9.53;;;19.90;97.30;;;19.56;70.28;100939.81;5053339;28;20230;-75
2023/06/29 06:17:37;;;;;;;14.00;10.87;;;19.90;97.20;;;19.56;69.99;100935.22;5053384;28;20186;-74
2023/06/29 06:20:11;;;;;;;14.23;11.33;;;19.90;97.10;;;19.57;70.12;100931.47;5053468;28;20286;-74
2023/06/29 06:22:43;;;;;;;16.63;11.77;;;20.00;97.10;;;19.59;69.68;100932.06;5053236;28;20233;-75
2023/06/29 06:25:17;;;;;;;16.33;11.13;;;20.00;97.00;;;19.61;69.91;100935.44;5053120;28;20771;-74
2023/06/29 06:27:51;;;;;;;17.80;12.20;;;20.00;97.00;;;19.52;69.78;100936.69;5053399;28;20241;-75
2023/06/29 06:30:25;;;;;;;18.27;11.93;;;19.90;97.00;;;19.58;69.61;100941.31;5055306;28;20284;-76
2023/06/29 06:32:57;;;;;;;12.90;11.03;;;19.90;96.90;;;19.63;70.06;100927.88;5057491;28;20290;-76
2023/06/29 06:35:29;;;;;;;14.47;10.27;;;20.00;97.10;;;19.68;69.65;100922.66;5056702;28;20237;-77
2023/06/29 06:38:01;;;;;;;13.80;10.60;;;20.10;97.40;;;19.74;70.19;100927.22;5057385;28;20273;-77
2023/06/29 06:40:33;;;;;;;13.73;11.67;;;20.10;97.00;;;19.72;69.50;100923.91;5056911;28;20285;-77
2023/06/29 06:43:05;;;;;;;14.77;10.40;;;20.20;96.60;;;19.80;69.56;100916.53;5056975;28;20237;-77
2023/06/29 06:45:38;;;;;;;13.83;9.47;;;20.20;96.90;;;19.87;70.04;100917.34;5056653;28;20652;-77
2023/06/29 06:48:10;;;;;;;14.97;10.57;;;20.30;97.10;;;19.90;69.39;100914.22;5056952;28;20696;-77
2023/06/29 06:50:42;;;;;;;15.23;10.60;;;20.30;96.80;;;19.96;69.25;100916.06;5056594;28;20637;-77
2023/06/29 06:53:15;;;;;;;14.00;9.87;;;20.40;96.80;;;20.02;69.13;100917.91;5056706;28;20194;-77
2023/06/29 06:55:47;;;;;;;13.80;11.40;;;20.40;96.60;;;20.03;67.90;100922.28;5056808;28;20308;-75
2023/06/29 06:58:19;;;;;;;16.00;10.57;;;20.40;96.00;;;20.04;68.29;100926.66;5056447;28;20551;-76
2023/06/29 07:00:52;;;;;;;14.20;10.37;;;20.40;96.10;;;20.11;67.95;100922.84;5056667;28;20282;-76
2023/06/29 07:03:25;;;;;;;19.60;11.53;;;20.50;96.10;;;20.07;67.51;100924.34;5056551;28;20194;-76
2023/06/29 07:05:57;;;;;;;15.80;11.80;;;20.50;95.80;;;20.10;67.38;100928.53;5056624;28;20209;-76
2023/06/29 07:08:30;;;;;;;16.17;11.30;;;20.50;95.80;;;20.11;67.70;100928.28;5056459;28;20210;-74
2023/06/29 07:11:01;;;;;;;15.37;10.93;;;20.50;95.90;;;20.14;67.60;100927.00;5056141;28;20645;-74
2023/06/29 07:13:33;;;;;;;14.20;10.30;;;20.50;95.80;;;20.19;67.72;100932.63;5056084;28;20720;-74
2023/06/29 07:16:08;;;;;;;12.73;9.90;;;20.60;96.00;;;20.28;68.26;100923.19;5056406;28;20339;-74
2023/06/29 07:18:47;;;;;;;10.83;9.43;;;20.70;96.20;;;20.26;67.76;100925.28;5056064;28;20688;-74
2023/06/29 07:21:19;;;;;;;12.43;9.77;;;20.60;95.90;;;20.33;69.40;100928.81;5056415;28;20187;-74
2023/06/29 07:23:54;;;;;;;16.70;10.87;;;20.80;96.60;;;20.38;68.73;100920.81;5056142;28;20225;-74
2023/06/29 07:26:29;;;;;;;13.93;10.50;;;20.80;96.30;;;20.42;67.36;100922.06;5055894;28;20202;-74
2023/06/29 07:29:01;;;;;;;11.20;9.60;;;20.90;95.90;;;20.50;69.01;100913.63;5056114;28;20256;-74
2023/06/29 07:31:35;;;;;;;26.93;12.40;;;20.90;96.00;;;20.49;66.94;100917.41;5056115;28;20237;-74
2023/06/29 07:34:07;;;;;;;17.90;9.03;;;21.80;95.60;;;20.58;68.33;100910.63;5055597;28;20714;-74
2023/06/29 07:36:40;;;;;;;13.97;10.30;;;21.00;95.90;;;20.57;66.65;100911.69;5056093;28;20241;-74
2023/06/29 07:39:11;;;;;;;11.47;8.80;;;21.00;95.20;;;20.66;66.92;100906.81;5055740;28;20190;-74
2023/06/29 07:41:44;;;;;;;23.73;11.20;;;21.00;95.40;;;20.61;66.89;100910.22;5055463;28;20195;-74
2023/06/29 07:44:15;;;;;;;14.97;10.77;;;21.00;95.10;;;20.65;66.49;100911.41;5055766;28;20313;-74
2023/06/29 07:46:48;;;;;;;19.03;10.20;;;21.10;95.00;;;20.62;66.69;100906.41;5055845;28;20270;-74
2023/06/29 07:49:21;;;;;;;12.73;9.97;;;21.00;95.00;;;20.73;67.34;100902.13;5055781;28;20297;-74
2023/06/29 07:51:53;;;;;;;13.90;11.17;;;21.10;95.40;;;20.77;66.54;100899.81;5055740;28;20226;-74
2023/06/29 07:54:27;;;;;;;13.77;9.70;;;21.10;95.00;;;20.84;66.69;100897.84;5055601;28;20265;-74
2023/06/29 07:56:58;;;;;;;12.57;9.67;;;21.20;95.40;;;20.90;65.56;100896.97;5056450;28;20217;-74
2023/06/29 07:59:33;;;;;;;14.37;10.17;;;21.30;94.60;;;20.80;65.84;100899.34;5055482;28;20221;-74
2023/06/29 08:02:08;;;;;;;12.47;9.07;;;21.20;94.50;;;20.91;67.30;100901.34;5055288;28;20218;-74
2023/06/29 08:04:40;;;;;;;14.53;10.83;;;20.70;95.10;;;20.95;65.97;100895.25;5055386;28;20229;-74
2023/06/29 08:07:14;;;;;;;13.83;10.63;;;21.30;94.70;;;21.02;65.55;100895.19;5055135;28;20236;-74
2023/06/29 08:09:46;;;;;;;22.77;10.33;;;21.40;94.50;;;21.08;65.77;100895.13;5055398;28;20191;-74
2023/06/29 08:12:18;;;;;;;15.17;9.47;;;21.40;94.50;;;21.13;65.92;100892.56;5056276;28;20198;-74
2023/06/29 08:14:50;;;;;;;16.83;10.20;;;21.50;94.70;;;21.21;65.31;100892.28;5055299;28;20225;-74
2023/06/29 08:17:23;;;;;;;14.40;9.33;;;21.60;94.50;;;21.27;65.88;100898.69;5055731;28;20214;-74
2023/06/29 08:19:55;;;;;;;22.47;11.23;;;21.60;94.90;;;21.27;64.99;100895.16;5055584;28;20244;-74
2023/06/29 08:22:28;;;;;;;16.57;10.37;;;21.60;94.20;;;21.30;65.35;100898.28;5055293;28;20557;-74
2023/06/29 08:25:00;;;;;;;18.43;11.00;;;21.70;94.20;;;21.37;65.17;100882.66;5054896;28;20265;-74
2023/06/29 08:27:32;;;;;;;16.13;10.30;;;21.60;94.30;;;21.42;66.05;100882.00;5055244;28;20262;-74
2023/06/29 08:30:04;;;;;;;13.23;10.67;;;21.80;95.00;;;21.42;63.90;100888.28;5055660;28;20251;-74
2023/06/29 08:32:37;;;;;;;13.67;10.87;;;21.80;93.80;;;21.40;64.50;100875.94;5055441;28;20218;-74
2023/06/29 08:35:11;;;;;;;16.73;13.30;;;21.80;93.90;;;21.49;63.75;100880.84;5055148;28;20234;-74
2023/06/29 08:37:43;;;;;;;20.83;12.43;;;21.80;93.50;;;21.54;64.19;100878.25;5055747;28;20260;-74
2023/06/29 08:40:21;;;;;;;19.10;13.33;;;22.00;94.20;;;21.58;64.18;100873.19;5055718;28;20205;-63
2023/06/29 08:42:53;;;;;;;24.13;19.47;;;21.90;93.90;;;21.64;63.99;100873.09;5054996;28;20194;-73
2023/06/29 08:45:25;;;;;;;20.63;13.77;;;22.00;93.90;;;21.72;64.61;100880.13;5054806;28;20257;-73
2023/06/29 08:48:00;;;;;;;16.43;12.67;;;22.10;93.80;;;21.79;64.23;100877.31;5054378;28;20594;-73
2023/06/29 08:50:34;;;;;;;23.87;14.80;;;22.20;93.60;;;21.79;63.11;100880.03;5054577;28;20636;-75
2023/06/29 08:53:05;;;;;;;19.50;15.53;;;22.20;92.90;;;21.87;63.12;100879.72;5054292;28;20232;-75
2023/06/29 08:55:42;;;;;;;23.67;15.30;;;22.20;93.30;;;21.98;63.17;100879.00;5054419;28;20607;-73
2023/06/29 08:58:15;;;;;;;23.93;16.07;;;22.40;93.00;;;22.07;63.66;100878.41;5054667;28;20269;-73
2023/06/29 09:00:49;;;;;;;27.20;20.13;;;22.50;93.20;;;22.12;63.07;100873.09;5054644;28;20291;-73
2023/06/29 09:03:26;;;;;;;24.33;17.37;;;22.50;93.40;;;22.15;62.46;100875.38;5055140;28;20190;-73
2023/06/29 09:05:59;;;;;;;28.10;15.30;;;22.50;92.80;;;22.24;61.69;100879.41;5054723;28;20195;-73
2023/06/29 09:08:34;;;;;;;23.80;15.20;;;22.60;92.50;;;22.28;61.68;100882.50;5054136;28;20676;-73
2023/06/29 09:11:06;;;;;;;28.83;16.97;;;22.60;92.30;;;22.25;60.54;100872.06;5054395;28;20241;-74
2023/06/29 09:13:38;;;;;;;23.13;15.43;;;22.70;91.60;;;22.40;61.66;100883.34;5054503;28;20230;-73
2023/06/29 09:16:10;;;;;;;22.97;16.07;;;22.70;92.30;;;22.33;60.95;100879.91;5054332;28;20646;-73
2023/06/29 09:18:48;;;;;;;22.27;16.17;;;22.60;91.80;;;22.42;63.60;100883.13;5054406;28;20186;-73
2023/06/29 09:21:21;;;;;;;20.03;14.20;;;22.80;93.00;;;22.45;61.65;100880.78;5054457;28;20190;-73
2023/06/29 09:23:55;;;;;;;20.47;14.90;;;22.80;92.20;;;22.51;62.89;100879.81;5054178;28;20230;-74
2023/06/29 09:26:29;;;;;;;19.17;14.23;;;22.80;92.80;;;22.55;64.23;100878.28;5054111;28;20252;-74
2023/06/29 09:29:03;;;;;;;21.37;14.57;;;22.80;93.30;;;22.58;62.23;100872.38;5054062;28;20210;-74
2023/06/29 09:31:37;;;;;;;22.27;16.93;;;22.90;92.50;;;22.65;62.67;100870.34;5053935;28;20186;-73
2023/06/29 09:34:26;;;;;;;19.90;13.73;;;23.00;92.80;;;22.73;61.84;100878.22;5053831;28;20328;-73
2023/06/29 09:36:58;;;;;;;19.97;14.03;;;23.00;92.40;;;22.77;63.97;100866.84;5053987;28;20244;-73
2023/06/29 09:39:30;;;;;;;23.13;13.63;;;23.10;93.40;;;22.81;61.25;100873.50;5053831;28;20273;-75
2023/06/29 09:42:05;;;;;;;21.23;13.90;;;23.10;91.90;;;22.76;61.18;100874.19;5053695;28;20631;-75
2023/06/29 09:44:39;;;;;;;20.77;15.33;;;23.10;91.80;;;22.82;62.70;100872.41;5053704;28;20275;-74
2023/06/29 09:47:12;;;;;;;21.17;14.27;;;23.10;92.90;;;22.87;62.76;100862.44;5053774;28;20251;-74
2023/06/29 09:49:52;;;;;;;21.87;14.70;;;23.20;92.90;;;22.86;60.63;100868.13;5053648;28;20293;-74
2023/06/29 09:52:24;;;;;;;20.53;14.70;;;23.20;91.60;;;22.86;60.17;100868.13;5053656;28;20193;-74
2023/06/29 09:55:01;;;;;;;19.07;13.10;;;23.20;91.50;;;22.86;60.18;100871.69;5053323;28;20226;-74
2023/06/29 09:57:33;;;;;;;20.20;13.03;;;23.20;91.50;;;22.87;60.31;100867.06;5053603;28;20280;-74
2023/06/29 10:00:11;;;;;;;34.50;13.63;;;23.20;92.00;;;22.84;59.72;100867.56;5053602;28;20286;-74
2023/06/29 10:02:43;;;;;;;19.43;12.73;;;23.10;91.20;;;22.90;60.03;100866.59;5053247;28;20649;-74
2023/06/29 10:05:17;;;;;;;22.83;13.60;;;23.10;91.40;;;22.99;60.81;100871.44;5053418;28;20280;-74
2023/06/29 10:07:50;;;;;;;18.00;12.47;;;23.30;91.70;;;23.05;60.78;100875.13;5053238;28;20209;-75
2023/06/29 10:10:25;;;;;;;18.73;12.13;;;23.30;91.80;;;23.01;59.40;100865.75;5053427;28;20248;-75
2023/06/29 10:13:02;;;;;;;13.90;9.60;;;23.30;90.70;;;23.02;59.95;100873.69;5053435;28;20636;-76
2023/06/29 10:15:36;;;;;;;14.57;9.60;;;23.30;91.30;;;23.06;60.64;100860.41;5053417;28;20277;-76
2023/06/29 10:18:16;;;;;;;14.30;9.13;;;23.30;91.80;;;23.11;60.19;100866.81;5053098;28;20209;-75
2023/06/29 10:20:50;;;;;;;14.33;9.97;;;23.40;91.40;;;23.15;59.73;100864.44;5053438;28;20260;-75
2023/06/29 10:23:26;;;;;;;15.57;10.40;;;23.40;90.90;;;23.19;57.71;100868.34;5053249;28;20194;-75
2023/06/29 10:26:00;;;;;;;13.10;10.20;;;23.40;90.00;;;23.25;57.75;100859.22;5052878;28;20686;-76
2023/06/29 10:28:33;;;;;;;14.63;10.30;;;23.50;90.00;;;23.30;57.06;100862.03;5053272;28;20269;-75
2023/06/29 10:31:05;;;;;;;14.63;9.17;;;23.60;89.20;;;23.32;57.33;100854.44;5052937;28;20558;-75